createdAt,value
2024-05-09T00:00:39.197Z,101838.34
2024-05-09T00:03:08.405Z,101841.25
2024-05-09T00:05:36.935Z,101840.97
2024-05-09T00:08:04.414Z,101850.81
2024-05-09T00:10:36.444Z,101845.59
2024-05-09T00:13:06.436Z,101839.84
2024-05-09T00:15:33.974Z,101843.06
2024-05-09T00:18:01.737Z,101837.88
2024-05-09T00:20:36.839Z,101832.75
2024-05-09T00:23:07.506Z,101839.09
2024-05-09T00:25:35.270Z,101835.81
2024-05-09T00:28:02.661Z,101836.91
2024-05-09T00:30:34.443Z,101835.34
2024-05-09T00:33:08.718Z,101835.59
2024-05-09T00:35:36.951Z,101834.38
2024-05-09T00:38:04.224Z,101835.59
2024-05-09T00:40:41.630Z,101830.72
2024-05-09T00:43:11.396Z,101827.81
2024-05-09T00:45:38.654Z,101834.09
2024-05-09T00:48:08.491Z,101829.84
2024-05-09T00:50:40.189Z,101818.75
2024-05-09T00:53:09.864Z,101827.09
2024-05-09T00:55:37.767Z,101827.72
2024-05-09T00:58:05.979Z,101823.03
2024-05-09T01:00:38.911Z,101823.03
2024-05-09T01:03:10.033Z,101821.78
2024-05-09T01:05:39.317Z,101817.03
2024-05-09T01:08:07.091Z,101817.88
2024-05-09T01:10:35.533Z,101814.00
2024-05-09T01:13:04.110Z,101816.66
2024-05-09T01:15:30.975Z,101816.34
2024-05-09T01:17:58.909Z,101814.59
2024-05-09T01:20:36.854Z,101823.31
2024-05-09T01:23:09.848Z,101814.34
2024-05-09T01:25:37.521Z,101816.28
2024-05-09T01:28:04.605Z,101827.31
2024-05-09T01:30:35.148Z,101815.03
2024-05-09T01:33:06.582Z,101814.22
2024-05-09T01:35:35.015Z,101820.66
2024-05-09T01:38:01.946Z,101823.00
2024-05-09T01:40:36.667Z,101818.72
2024-05-09T01:43:06.983Z,101816.38
2024-05-09T01:45:33.948Z,101809.31
2024-05-09T01:48:01.126Z,101812.13
2024-05-09T01:50:37.711Z,101811.78
2024-05-09T01:53:09.217Z,101811.97
2024-05-09T01:55:36.293Z,101808.28
2024-05-09T01:58:03.076Z,101812.66
2024-05-09T02:00:38.391Z,101816.19
2024-05-09T02:03:10.707Z,101811.06
2024-05-09T02:05:39.421Z,101815.13
2024-05-09T02:08:06.981Z,101813.66
2024-05-09T02:10:33.889Z,101816.22
2024-05-09T02:13:01.030Z,101810.88
2024-05-09T02:15:27.858Z,101815.25
2024-05-09T02:17:54.742Z,101818.16
2024-05-09T02:22:51.281Z,101822.97
2024-05-09T02:25:18.006Z,101818.28
2024-05-09T02:27:44.707Z,101820.75
2024-05-09T02:30:18.815Z,101810.47
2024-05-09T02:32:53.033Z,101811.34
2024-05-09T02:35:19.801Z,101814.31
2024-05-09T02:37:46.562Z,101815.72
2024-05-09T02:40:15.009Z,101810.72
2024-05-09T02:42:48.105Z,101816.03
2024-05-09T02:45:14.806Z,101810.72
2024-05-09T02:47:41.556Z,101816.59
2024-05-09T02:50:08.487Z,101807.94
2024-05-09T02:52:35.243Z,101806.44
2024-05-09T02:55:02.173Z,101806.22
2024-05-09T02:57:28.873Z,101802.19
2024-05-09T02:59:55.600Z,101802.19
2024-05-09T03:02:22.497Z,101802.59
2024-05-09T03:04:49.526Z,101807.28
2024-05-09T03:07:17.837Z,101805.69
2024-05-09T03:09:47.098Z,101800.88
2024-05-09T03:12:13.946Z,101798.28
2024-05-09T03:14:40.800Z,101797.22
2024-05-09T03:17:07.755Z,101787.41
2024-05-09T03:19:37.686Z,101790.59
2024-05-09T03:22:04.593Z,101789.75
2024-05-09T03:24:31.307Z,101793.50
2024-05-09T03:26:58.004Z,101789.00
2024-05-09T03:29:24.833Z,101793.81
2024-05-09T03:31:51.699Z,101795.75
2024-05-09T03:34:18.481Z,101794.25
2024-05-09T03:36:45.609Z,101802.88
2024-05-09T03:39:12.371Z,101789.75
2024-05-09T03:41:39.275Z,101793.81
2024-05-09T03:44:06.143Z,101793.63
2024-05-09T03:46:37.684Z,101792.56
2024-05-09T03:49:04.781Z,101797.66
2024-05-09T03:51:31.906Z,101792.56
2024-05-09T03:53:58.717Z,101800.97
2024-05-09T03:56:25.969Z,101785.09
2024-05-09T03:58:52.731Z,101792.56
2024-05-09T04:01:19.597Z,101793.41
2024-05-09T04:03:46.558Z,101796.91
2024-05-09T04:06:23.290Z,101792.97
2024-05-09T04:08:50.070Z,101792.88
2024-05-09T04:11:17.880Z,101797.22
2024-05-09T04:13:44.872Z,101797.75
2024-05-09T04:16:11.800Z,101792.13
2024-05-09T04:18:38.602Z,101797.34
2024-05-09T04:21:06.400Z,101800.88
2024-05-09T04:23:33.241Z,101801.72
2024-05-09T04:26:04.224Z,101806.00
2024-05-09T04:28:30.963Z,101806.88
2024-05-09T04:30:57.709Z,101806.56
2024-05-09T04:33:24.747Z,101810.59
2024-05-09T04:35:52.211Z,101812.31
2024-05-09T04:38:19.127Z,101810.28
2024-05-09T04:40:45.974Z,101807.59
2024-05-09T04:43:18.922Z,101813.06
2024-05-09T04:45:46.140Z,101813.81
2024-05-09T04:48:13.329Z,101805.78
2024-05-09T04:50:40.477Z,101811.53
2024-05-09T04:53:09.841Z,101813.94
2024-05-09T04:55:37.986Z,101811.78
2024-05-09T04:58:06.845Z,101803.06
2024-05-09T05:00:37.193Z,101806.78
2024-05-09T05:03:30.990Z,101816.06
2024-05-09T05:05:58.112Z,101811.88
2024-05-09T05:08:25.205Z,101820.88
2024-05-09T05:10:52.974Z,101825.63
2024-05-09T05:13:21.369Z,101819.78
2024-05-09T05:15:50.879Z,101814.59
2024-05-09T05:18:18.266Z,101825.56
2024-05-09T05:20:45.718Z,101820.66
2024-05-09T05:23:14.945Z,101818.53
2024-05-09T05:25:42.534Z,101819.75
2024-05-09T05:28:09.515Z,101813.88
2024-05-09T05:30:38.059Z,101816.44
2024-05-09T05:33:06.144Z,101825.09
2024-05-09T05:35:34.438Z,101825.22
2024-05-09T05:38:01.761Z,101822.94
2024-05-09T05:40:36.135Z,101816.56
2024-05-09T05:43:25.434Z,101818.47
2024-05-09T05:45:52.141Z,101820.16
2024-05-09T05:48:19.270Z,101823.91
2024-05-09T05:50:46.431Z,101829.84
2024-05-09T05:53:13.412Z,101822.47
2024-05-09T05:55:41.224Z,101820.53
2024-05-09T05:58:12.181Z,101824.53
2024-05-09T06:00:41.463Z,101821.13
2024-05-09T06:03:10.358Z,101835.56
2024-05-09T06:05:40.143Z,101820.69
2024-05-09T06:08:07.744Z,101825.03
2024-05-09T06:10:38.949Z,101831.59
2024-05-09T06:13:10.368Z,101832.75
2024-05-09T06:15:37.127Z,101820.66
2024-05-09T06:18:06.361Z,101820.50
2024-05-09T06:20:36.536Z,101827.34
2024-05-09T06:23:06.341Z,101823.28
2024-05-09T06:25:33.857Z,101810.47
2024-05-09T06:28:00.965Z,101817.53
2024-05-09T06:30:36.796Z,101816.50
2024-05-09T06:33:10.244Z,101819.91
2024-05-09T06:35:38.608Z,101828.78
2024-05-09T06:38:08.671Z,101820.53
2024-05-09T06:40:38.627Z,101817.28
2024-05-09T06:43:14.016Z,101821.69
2024-05-09T06:45:41.174Z,101834.34
2024-05-09T06:48:09.137Z,101828.16
2024-05-09T06:50:38.324Z,101831.75
2024-05-09T06:53:06.886Z,101828.53
2024-05-09T06:55:33.827Z,101822.72
2024-05-09T06:58:00.589Z,101829.97
2024-05-09T07:00:35.153Z,101838.97
2024-05-09T07:03:15.874Z,101833.66
2024-05-09T07:05:45.056Z,101833.66
2024-05-09T07:08:13.431Z,101825.94
2024-05-09T07:10:40.307Z,101837.56
2024-05-09T07:13:09.058Z,101837.63
2024-05-09T07:15:35.786Z,101831.16
2024-05-09T07:18:11.233Z,101831.22
2024-05-09T07:20:39.760Z,101835.00
2024-05-09T07:23:09.957Z,101833.09
2024-05-09T07:25:37.090Z,101840.00
2024-05-09T07:28:04.056Z,101830.59
2024-05-09T07:30:34.085Z,101827.31
2024-05-09T07:33:03.049Z,101831.38
2024-05-09T07:35:31.047Z,101825.03
2024-05-09T07:37:58.354Z,101829.69
2024-05-09T07:40:32.920Z,101827.72
2024-05-09T07:43:07.416Z,101829.97
2024-05-09T07:52:23.926Z,101819.25
2024-05-09T07:53:39.300Z,101820.44
2024-05-09T07:56:10.122Z,101822.19
2024-05-09T07:58:37.796Z,101818.88
2024-05-09T08:01:05.118Z,101827.97
2024-05-09T08:03:34.132Z,101825.53
2024-05-09T08:06:01.130Z,101817.66
2024-05-09T08:08:27.836Z,101820.81
2024-05-09T08:10:54.716Z,101821.31
2024-05-09T08:13:21.514Z,101822.59
2024-05-09T08:15:48.811Z,101821.66
2024-05-09T08:18:15.989Z,101820.47
2024-05-09T08:20:42.884Z,101809.72
2024-05-09T08:23:11.103Z,101824.09
2024-05-09T08:25:38.730Z,101823.22
2024-05-09T08:28:05.847Z,101814.97
2024-05-09T08:30:36.616Z,101810.81
2024-05-09T08:33:06.085Z,101810.72
2024-05-09T08:35:33.478Z,101815.16
2024-05-09T08:38:02.830Z,101817.59
2024-05-09T08:40:35.422Z,101807.34
2024-05-09T08:43:07.770Z,101808.56
2024-05-09T08:45:36.071Z,101801.06
2024-05-09T08:48:05.849Z,101803.25
2024-05-09T08:50:38.732Z,101806.00
2024-05-09T08:53:07.623Z,101800.53
2024-05-09T08:55:37.396Z,101798.69
2024-05-09T08:58:07.566Z,101792.69
2024-05-09T09:00:37.427Z,101801.28
2024-05-09T09:03:09.132Z,101794.28
2024-05-09T09:05:38.805Z,101803.50
2024-05-09T09:08:09.062Z,101795.28
2024-05-09T09:10:39.567Z,101796.88
2024-05-09T09:13:09.553Z,101796.81
2024-05-09T09:15:47.646Z,101791.09
2024-05-09T09:18:16.092Z,101794.25
2024-05-09T09:20:43.965Z,101786.44
2024-05-09T09:23:10.771Z,101791.19
2024-05-09T09:25:41.545Z,101783.25
2024-05-09T09:28:09.255Z,101788.06
2024-05-09T09:30:42.950Z,101781.97
2024-05-09T09:33:10.640Z,101794.72
2024-05-09T09:35:39.842Z,101782.09
2024-05-09T09:38:07.655Z,101781.81
2024-05-09T09:40:38.933Z,101787.19
2024-05-09T09:43:14.779Z,101792.00
2024-05-09T09:45:44.172Z,101791.59
2024-05-09T09:48:14.629Z,101788.41
2024-05-09T09:50:41.907Z,101789.84
2024-05-09T09:53:10.214Z,101792.47
2024-05-09T09:55:38.539Z,101792.66
2024-05-09T09:58:08.767Z,101790.38
2024-05-09T10:00:37.991Z,101785.84
2024-05-09T10:03:05.301Z,101777.84
2024-05-09T10:05:34.160Z,101786.69
2024-05-09T10:08:06.805Z,101777.44
2024-05-09T10:10:36.177Z,101777.06
2024-05-09T10:13:04.640Z,101771.59
2024-05-09T10:15:45.292Z,101775.88
2024-05-09T10:18:12.393Z,101766.00
2024-05-09T10:20:46.469Z,101766.00
2024-05-09T10:23:26.945Z,101768.63
2024-05-09T10:26:04.627Z,101764.78
2024-05-09T10:28:33.187Z,101763.94
2024-05-09T10:31:03.219Z,101760.31
2024-05-09T10:33:39.945Z,101764.72
2024-05-09T10:36:25.979Z,101755.50
2024-05-09T10:38:53.997Z,101747.91
2024-05-09T10:41:22.102Z,101754.41
2024-05-09T10:43:49.443Z,101746.50
2024-05-09T10:46:16.851Z,101745.13
2024-05-09T10:48:44.562Z,101732.53
2024-05-09T10:51:11.906Z,101727.63
2024-05-09T10:53:43.511Z,101729.53
2024-05-09T10:56:11.064Z,101736.00
2024-05-09T10:58:37.846Z,101731.50
2024-05-09T11:01:07.027Z,101730.88
2024-05-09T11:03:34.882Z,101734.28
2024-05-09T11:06:02.050Z,101735.06
2024-05-09T11:08:30.530Z,101728.94
2024-05-09T11:10:59.367Z,101724.53
2024-05-09T11:13:30.122Z,101723.31
2024-05-09T11:15:57.154Z,101719.94
2024-05-09T11:18:26.759Z,101716.13
2024-05-09T11:20:56.168Z,101715.88
2024-05-09T11:23:27.329Z,101715.50
2024-05-09T11:25:55.859Z,101711.72
2024-05-09T11:28:23.701Z,101706.88
2024-05-09T11:30:50.940Z,101705.59
2024-05-09T11:33:20.533Z,101706.88
2024-05-09T11:35:47.443Z,101705.41
2024-05-09T11:38:14.294Z,101707.09
2024-05-09T11:40:41.719Z,101689.19
2024-05-09T11:43:08.688Z,101694.91
2024-05-09T11:45:35.439Z,101693.44
2024-05-09T11:48:03.648Z,101691.31
2024-05-09T11:50:35.208Z,101689.22
2024-05-09T11:53:03.001Z,101696.09
2024-05-09T11:55:30.583Z,101692.25
2024-05-09T11:57:57.621Z,101689.38
2024-05-09T12:00:33.874Z,101686.06
2024-05-09T12:03:05.348Z,101688.38
2024-05-09T12:05:34.148Z,101691.28
2024-05-09T12:08:01.554Z,101676.53
2024-05-09T12:10:33.467Z,101678.28
2024-05-09T12:13:04.740Z,101671.22
2024-05-09T12:15:33.972Z,101671.25
2024-05-09T12:18:03.419Z,101680.59
2024-05-09T12:20:36.843Z,101683.63
2024-05-09T12:23:06.477Z,101673.59
2024-05-09T12:25:33.405Z,101670.69
2024-05-09T12:28:00.629Z,101665.78
2024-05-09T12:30:36.009Z,101666.56
2024-05-09T12:33:07.665Z,101671.31
2024-05-09T12:35:34.718Z,101660.88
2024-05-09T12:38:01.525Z,101658.94
2024-05-09T12:40:35.620Z,101661.72
2024-05-09T12:43:06.972Z,101667.13
2024-05-09T12:45:34.041Z,101643.66
2024-05-09T12:48:01.064Z,101646.78
2024-05-09T12:50:32.744Z,101648.16
2024-05-09T12:53:02.379Z,101656.91
2024-05-09T12:55:34.206Z,101644.53
2024-05-09T12:58:08.571Z,101642.66
2024-05-09T13:00:35.576Z,101641.31
2024-05-09T13:03:02.746Z,101635.63
2024-05-09T13:05:29.899Z,101638.09
2024-05-09T13:07:57.235Z,101640.72
2024-05-09T13:10:31.694Z,101635.22
2024-05-09T13:13:01.345Z,101637.75
2024-05-09T13:15:30.426Z,101629.06
2024-05-09T13:18:00.313Z,101629.91
2024-05-09T13:20:33.418Z,101623.16
2024-05-09T13:23:03.649Z,101630.13
2024-05-09T13:25:30.531Z,101620.66
2024-05-09T13:27:57.867Z,101613.94
2024-05-09T13:30:30.185Z,101617.72
2024-05-09T13:33:06.085Z,101623.19
2024-05-09T13:35:34.866Z,101608.06
2024-05-09T13:38:02.581Z,101611.88
2024-05-09T13:40:33.815Z,101616.06
2024-05-09T13:43:03.504Z,101605.97
2024-05-09T13:45:30.528Z,101609.94
2024-05-09T13:47:57.538Z,101603.41
2024-05-09T13:50:33.108Z,101594.81
2024-05-09T13:53:03.218Z,101594.47
2024-05-09T13:55:30.015Z,101591.66
2024-05-09T13:57:56.813Z,101589.97
2024-05-09T14:00:37.864Z,101595.88
2024-05-09T14:03:10.708Z,101598.19
2024-05-09T14:05:37.794Z,101598.81
2024-05-09T14:08:04.959Z,101585.56
2024-05-09T14:10:32.518Z,101585.31
2024-05-09T14:13:00.942Z,101579.38
2024-05-09T14:15:27.899Z,101579.41
2024-05-09T14:17:55.296Z,101576.75
2024-05-09T14:20:30.383Z,101574.63
2024-05-09T14:22:59.642Z,101578.59
2024-05-09T14:25:28.414Z,101572.75
2024-05-09T14:27:57.505Z,101569.81
2024-05-09T14:30:31.044Z,101573.56
2024-05-09T14:33:04.139Z,101566.19
2024-05-09T14:35:31.191Z,101570.94
2024-05-09T14:37:58.191Z,101561.22
2024-05-09T14:40:36.515Z,101568.06
2024-05-09T14:43:08.475Z,101568.56
2024-05-09T14:45:35.623Z,101567.44
2024-05-09T14:48:03.580Z,101559.66
2024-05-09T14:50:36.161Z,101561.72
2024-05-09T14:53:09.929Z,101559.81
2024-05-09T14:55:38.785Z,101558.78
2024-05-09T14:58:06.997Z,101550.63
2024-05-09T15:00:38.352Z,101545.34
2024-05-09T15:03:06.740Z,101551.53
2024-05-09T15:05:33.571Z,101549.22
2024-05-09T15:08:00.571Z,101541.25
2024-05-09T15:10:34.310Z,101546.50
2024-05-09T15:13:03.619Z,101543.72
2024-05-09T15:15:31.022Z,101536.25
2024-05-09T15:17:58.084Z,101541.59
2024-05-09T15:20:32.994Z,101540.25
2024-05-09T15:23:03.183Z,101528.06
2024-05-09T15:25:30.292Z,101529.78
2024-05-09T15:27:57.304Z,101525.13
2024-05-09T15:30:30.586Z,101519.25
2024-05-09T15:33:00.075Z,101524.03
2024-05-09T15:35:27.169Z,101528.22
2024-05-09T15:37:54.024Z,101521.09
2024-05-09T15:40:30.588Z,101517.72
2024-05-09T15:43:04.882Z,101519.81
2024-05-09T15:45:32.035Z,101520.25
2024-05-09T15:47:59.616Z,101517.69
2024-05-09T15:50:36.253Z,101519.38
2024-05-09T15:53:07.202Z,101515.19
2024-05-09T15:55:34.936Z,101509.94
2024-05-09T15:58:02.941Z,101512.41
2024-05-09T16:00:37.406Z,101502.94
2024-05-09T16:03:08.653Z,101501.38
2024-05-09T16:05:36.183Z,101502.97
2024-05-09T16:08:03.150Z,101505.28
2024-05-09T16:10:33.059Z,101504.09
2024-05-09T16:13:02.189Z,101495.47
2024-05-09T16:15:29.721Z,101508.91
2024-05-09T16:17:56.828Z,101490.81
2024-05-09T16:22:54.485Z,101494.81
2024-05-09T16:25:21.294Z,101495.88
2024-05-09T16:27:48.341Z,101487.47
2024-05-09T16:30:24.144Z,101494.19
2024-05-09T16:32:55.236Z,101482.84
2024-05-09T16:35:22.012Z,101484.94
2024-05-09T16:37:49.559Z,101490.38
2024-05-09T16:40:25.273Z,101482.00
2024-05-09T16:43:03.438Z,101479.31
2024-05-09T16:45:30.465Z,101482.13
2024-05-09T16:48:00.263Z,101484.69
2024-05-09T16:50:32.517Z,101483.94
2024-05-09T16:53:02.167Z,101482.63
2024-05-09T16:55:29.040Z,101478.59
2024-05-09T16:57:57.378Z,101478.69
2024-05-09T17:00:35.417Z,101482.28
2024-05-09T17:03:08.927Z,101487.44
2024-05-09T17:05:36.432Z,101480.22
2024-05-09T17:08:03.802Z,101481.88
2024-05-09T17:10:33.735Z,101486.19
2024-05-09T17:13:06.500Z,101484.19
2024-05-09T17:15:34.979Z,101474.56
2024-05-09T17:18:02.343Z,101475.69
2024-05-09T17:20:33.699Z,101478.13
2024-05-09T17:23:04.070Z,101476.69
2024-05-09T17:25:31.151Z,101473.47
2024-05-09T17:28:05.227Z,101477.53
2024-05-09T17:30:36.578Z,101484.94
2024-05-09T17:33:06.230Z,101477.06
2024-05-09T17:35:33.354Z,101475.25
2024-05-09T17:38:01.550Z,101478.59
2024-05-09T17:40:33.584Z,101478.31
2024-05-09T17:43:04.470Z,101470.69
2024-05-09T17:45:32.306Z,101474.97
2024-05-09T17:47:59.849Z,101474.75
2024-05-09T17:50:34.882Z,101465.25
2024-05-09T17:53:04.303Z,101470.44
2024-05-09T17:55:31.312Z,101471.47
2024-05-09T17:57:58.284Z,101465.47
2024-05-09T18:00:36.305Z,101460.50
2024-05-09T18:03:07.724Z,101464.75
2024-05-09T18:05:36.181Z,101457.88
2024-05-09T18:08:05.874Z,101464.97
2024-05-09T18:10:37.044Z,101473.34
2024-05-09T18:13:07.514Z,101465.19
2024-05-09T18:15:34.513Z,101468.34
2024-05-09T18:18:02.131Z,101469.00
2024-05-09T18:20:38.022Z,101476.94
2024-05-09T18:23:10.398Z,101471.44
2024-05-09T18:25:37.295Z,101462.91
2024-05-09T18:28:04.823Z,101471.50
2024-05-09T18:30:35.152Z,101470.16
2024-05-09T18:33:05.555Z,101465.91
2024-05-09T18:35:33.614Z,101465.84
2024-05-09T18:38:00.627Z,101460.22
2024-05-09T18:40:33.025Z,101460.50
2024-05-09T18:43:03.493Z,101464.31
2024-05-09T18:45:30.704Z,101466.31
2024-05-09T18:47:58.052Z,101464.06
2024-05-09T18:50:33.942Z,101469.56
2024-05-09T18:53:05.996Z,101474.94
2024-05-09T18:55:32.904Z,101475.97
2024-05-09T18:57:59.884Z,101480.53
2024-05-09T19:00:34.002Z,101479.34
2024-05-09T19:03:06.153Z,101482.78
2024-05-09T19:05:35.982Z,101483.81
2024-05-09T19:08:03.129Z,101488.06
2024-05-09T19:10:34.300Z,101494.66
2024-05-09T19:13:06.687Z,101503.91
2024-05-09T19:15:38.092Z,101501.59
2024-05-09T19:18:05.411Z,101508.84
2024-05-09T19:20:34.940Z,101513.97
2024-05-09T19:23:03.391Z,101504.13
2024-05-09T19:25:30.467Z,101510.44
2024-05-09T19:27:57.373Z,101507.91
2024-05-09T19:30:32.929Z,101511.91
2024-05-09T19:33:05.971Z,101507.34
2024-05-09T19:35:33.066Z,101511.44
2024-05-09T19:38:00.144Z,101506.56
2024-05-09T19:40:31.728Z,101509.75
2024-05-09T19:43:01.566Z,101512.53
2024-05-09T19:45:28.995Z,101507.72
2024-05-09T19:47:56.095Z,101512.19
2024-05-09T19:50:31.618Z,101508.22
2024-05-09T19:53:04.914Z,101509.44
2024-05-09T19:55:32.744Z,101507.97
2024-05-09T19:58:01.030Z,101512.28
2024-05-09T20:00:35.490Z,101518.63
2024-05-09T20:03:03.792Z,101514.91
2024-05-09T20:05:31.202Z,101523.53
2024-05-09T20:07:58.460Z,101518.78
2024-05-09T20:10:31.418Z,101517.13
2024-05-09T20:13:00.411Z,101512.56
2024-05-09T20:15:27.354Z,101509.00
2024-05-09T20:17:54.672Z,101518.78
2024-05-09T20:20:32.198Z,101521.34
2024-05-09T20:23:04.197Z,101526.06
2024-05-09T20:25:30.937Z,101520.25
2024-05-09T20:27:57.733Z,101525.81
2024-05-09T20:30:31.355Z,101525.22
2024-05-09T20:33:00.561Z,101533.66
2024-05-09T20:35:31.627Z,101524.69
2024-05-09T20:37:58.604Z,101530.28
2024-05-09T20:40:31.311Z,101514.66
2024-05-09T20:43:01.671Z,101529.25
2024-05-09T20:45:28.390Z,101535.31
2024-05-09T20:47:55.298Z,101529.72
2024-05-09T20:50:29.191Z,101529.59
2024-05-09T20:53:03.678Z,101535.34
2024-05-09T20:55:30.590Z,101537.00
2024-05-09T20:57:57.757Z,101533.66
2024-05-09T21:00:34.336Z,101534.44
2024-05-09T21:03:06.930Z,101530.03
2024-05-09T21:05:34.770Z,101520.72
2024-05-09T21:08:01.958Z,101530.28
2024-05-09T21:10:32.788Z,101522.50
2024-05-09T21:13:02.604Z,101524.19
2024-05-09T21:15:30.157Z,101528.63
2024-05-09T21:17:56.994Z,101518.50
2024-05-09T21:20:30.505Z,101523.81
2024-05-09T21:22:59.125Z,101520.63
2024-05-09T21:25:25.991Z,101518.91
2024-05-09T21:27:53.052Z,101521.81
2024-05-09T21:30:31.476Z,101532.50
2024-05-09T21:33:08.264Z,101528.72
2024-05-09T21:35:35.319Z,101535.63
2024-05-09T21:38:02.029Z,101533.09
2024-05-09T21:40:34.276Z,101528.53
2024-05-09T21:43:03.627Z,101534.25
2024-05-09T21:45:30.616Z,101530.88
2024-05-09T21:47:57.398Z,101540.44
2024-05-09T21:50:31.896Z,101527.84
2024-05-09T21:53:05.627Z,101524.78
2024-05-09T21:55:32.334Z,101532.16
2024-05-09T21:57:59.120Z,101530.97
2024-05-09T22:00:34.234Z,101529.41
2024-05-09T22:03:04.878Z,101521.78
2024-05-09T22:05:32.001Z,101515.75
2024-05-09T22:07:59.120Z,101516.66
2024-05-09T22:10:31.121Z,101510.13
2024-05-09T22:13:01.575Z,101517.88
2024-05-09T22:15:28.529Z,101514.63
2024-05-09T22:17:56.665Z,101514.81
2024-05-09T22:20:33.478Z,101512.59
2024-05-09T22:23:04.298Z,101512.34
2024-05-09T22:25:32.056Z,101516.66
2024-05-09T22:28:00.196Z,101522.06
2024-05-09T22:30:35.389Z,101521.31
2024-05-09T22:33:10.349Z,101527.84
2024-05-09T22:35:38.670Z,101529.94
2024-05-09T22:38:05.817Z,101526.22
2024-05-09T22:40:42.338Z,101530.84
2024-05-09T22:43:17.442Z,101533.41
2024-05-09T22:45:44.580Z,101528.47
2024-05-09T22:48:11.572Z,101521.28
2024-05-09T22:50:38.403Z,101525.84
2024-05-09T22:53:05.567Z,101530.00
2024-05-09T22:55:32.592Z,101528.75
2024-05-09T22:57:59.433Z,101526.53
2024-05-09T23:00:31.304Z,101529.13
2024-05-09T23:03:02.718Z,101521.50
2024-05-09T23:05:31.856Z,101521.25
2024-05-09T23:07:58.781Z,101519.00
2024-05-09T23:10:32.338Z,101510.22
2024-05-09T23:13:03.777Z,101506.28
2024-05-09T23:15:30.981Z,101502.88
2024-05-09T23:17:58.560Z,101511.72
2024-05-09T23:20:35.848Z,101491.19
2024-05-09T23:23:10.463Z,101499.66
2024-05-09T23:25:38.785Z,101491.31
2024-05-09T23:28:06.158Z,101498.16
2024-05-09T23:30:37.932Z,101494.75
2024-05-09T23:33:08.246Z,101486.84
2024-05-09T23:35:35.400Z,101489.25
2024-05-09T23:38:02.112Z,101482.09
2024-05-09T23:40:38.114Z,101488.50
2024-05-09T23:43:11.639Z,101483.34
2024-05-09T23:45:39.238Z,101479.41
2024-05-09T23:48:06.572Z,101478.88
2024-05-09T23:50:36.792Z,101485.94
2024-05-09T23:53:07.816Z,101487.34
2024-05-09T23:55:35.716Z,101481.97
2024-05-09T23:58:02.516Z,101489.41
